createdAt,value
2022-11-27T00:00:28.674Z,2.57
2022-11-27T00:01:31.734Z,2.54
2022-11-27T00:02:36.529Z,2.56
2022-11-27T00:03:42.373Z,2.58
2022-11-27T00:04:43.841Z,2.54
2022-11-27T00:05:55.142Z,2.52
2022-11-27T00:06:56.685Z,2.49
2022-11-27T00:07:58.186Z,2.54
2022-11-27T00:09:00.290Z,2.52
2022-11-27T00:10:01.741Z,2.55
2022-11-27T00:11:10.654Z,2.54
2022-11-27T00:12:12.053Z,2.58
2022-11-27T00:13:13.441Z,2.55
2022-11-27T00:14:15.905Z,2.57
2022-11-27T00:15:17.528Z,2.54
2022-11-27T00:16:20.385Z,2.51
2022-11-27T00:17:21.886Z,2.46
2022-11-27T00:18:23.277Z,2.46
2022-11-27T00:19:24.645Z,2.45
2022-11-27T00:20:29.571Z,2.46
2022-11-27T00:21:32.258Z,2.49
2022-11-27T00:22:33.612Z,2.47
2022-11-27T00:23:35.024Z,2.46
2022-11-27T00:24:36.402Z,2.46
2022-11-27T00:25:37.733Z,2.43
2022-11-27T00:26:39.362Z,2.43
2022-11-27T00:27:40.790Z,2.48
2022-11-27T00:28:42.564Z,2.44
2022-11-27T00:29:43.953Z,2.42
2022-11-27T00:30:45.333Z,2.38
2022-11-27T00:31:46.765Z,2.42
2022-11-27T00:32:48.207Z,2.42
2022-11-27T00:33:49.622Z,2.40
2022-11-27T00:34:51.044Z,2.40
2022-11-27T00:35:55.083Z,2.38
2022-11-27T00:36:56.611Z,2.39
2022-11-27T00:37:58.058Z,2.40
2022-11-27T00:38:59.518Z,2.38
2022-11-27T00:40:00.929Z,2.39
2022-11-27T00:41:06.293Z,2.38
2022-11-27T00:42:07.883Z,2.41
2022-11-27T00:43:09.325Z,2.41
2022-11-27T00:44:11.391Z,2.41
2022-11-27T00:45:12.816Z,2.45
2022-11-27T00:46:15.072Z,2.42
2022-11-27T00:47:16.880Z,2.38
2022-11-27T00:48:18.311Z,2.40
2022-11-27T00:49:19.677Z,2.37
2022-11-27T00:50:21.074Z,2.36
2022-11-27T00:51:23.734Z,2.38
2022-11-27T00:52:25.186Z,2.37
2022-11-27T00:53:26.595Z,2.33
2022-11-27T00:54:28.136Z,2.34
2022-11-27T00:55:29.529Z,2.35
2022-11-27T00:56:35.368Z,2.37
2022-11-27T00:57:36.949Z,2.35
2022-11-27T00:58:38.323Z,2.37
2022-11-27T00:59:39.764Z,2.35
2022-11-27T01:00:41.152Z,2.37
2022-11-27T01:01:43.086Z,2.37
2022-11-27T01:02:44.599Z,2.35
2022-11-27T01:03:46.734Z,2.36
2022-11-27T01:04:48.470Z,2.35
2022-11-27T01:05:49.964Z,2.40
2022-11-27T01:06:51.297Z,2.39
2022-11-27T01:07:52.786Z,2.39
2022-11-27T01:08:54.666Z,2.38
2022-11-27T01:09:56.188Z,2.36
2022-11-27T01:10:58.210Z,2.34
2022-11-27T01:11:59.593Z,2.32
2022-11-27T01:13:00.964Z,2.30
2022-11-27T01:14:04.126Z,2.32
2022-11-27T01:15:05.676Z,2.31
2022-11-27T01:16:09.093Z,2.31
2022-11-27T01:17:10.572Z,2.27
2022-11-27T01:18:11.971Z,2.29
2022-11-27T01:19:13.760Z,2.31
2022-11-27T01:20:15.167Z,2.34
2022-11-27T01:21:18.045Z,2.34
2022-11-27T01:22:19.417Z,2.33
2022-11-27T01:23:21.261Z,2.37
2022-11-27T01:24:22.661Z,2.33
2022-11-27T01:25:26.934Z,2.33
2022-11-27T01:26:28.634Z,2.35
2022-11-27T01:27:30.108Z,2.33
2022-11-27T01:28:31.591Z,2.33
2022-11-27T01:29:32.928Z,2.30
2022-11-27T01:30:36.895Z,2.29
2022-11-27T01:31:38.448Z,2.25
2022-11-27T01:32:39.918Z,2.29
2022-11-27T01:33:41.305Z,2.29
2022-11-27T01:34:42.747Z,2.28
2022-11-27T01:35:53.600Z,2.24
2022-11-27T01:36:54.936Z,2.22
2022-11-27T01:37:56.308Z,2.21
2022-11-27T01:38:58.023Z,2.20
2022-11-27T01:39:59.414Z,2.22
2022-11-27T01:41:01.995Z,2.22
2022-11-27T01:42:03.458Z,2.22
2022-11-27T01:43:05.827Z,2.19
2022-11-27T01:44:25.644Z,2.17
2022-11-27T01:45:27.085Z,2.21
2022-11-27T01:46:34.661Z,2.19
2022-11-27T01:47:39.728Z,2.20
2022-11-27T01:48:41.159Z,2.19
2022-11-27T01:49:51.660Z,2.18
2022-11-27T01:50:53.166Z,2.18
2022-11-27T01:52:02.743Z,2.20
2022-11-27T01:53:13.189Z,2.18
2022-11-27T01:54:15.958Z,2.16
2022-11-27T01:55:17.290Z,2.17
2022-11-27T01:56:19.680Z,2.19
2022-11-27T01:57:23.651Z,2.18
2022-11-27T01:58:27.764Z,2.21
2022-11-27T01:59:29.292Z,2.25
2022-11-27T02:00:30.718Z,2.21
2022-11-27T02:01:32.274Z,2.18
2022-11-27T02:02:33.801Z,2.16
2022-11-27T02:03:35.270Z,2.12
2022-11-27T02:04:36.768Z,2.12
2022-11-27T02:05:38.384Z,2.15
2022-11-27T02:06:39.810Z,2.10
2022-11-27T02:07:41.282Z,2.08
2022-11-27T02:08:42.881Z,2.04
2022-11-27T02:09:44.396Z,2.04
2022-11-27T02:10:53.914Z,2.04
2022-11-27T02:12:03.353Z,2.01
2022-11-27T02:13:13.356Z,2.00
2022-11-27T02:14:14.748Z,1.99
2022-11-27T02:15:16.169Z,1.99
2022-11-27T02:16:18.304Z,1.99
2022-11-27T02:17:38.541Z,1.98
2022-11-27T02:18:47.178Z,1.95
2022-11-27T02:20:00.973Z,1.93
2022-11-27T02:21:11.185Z,1.97
2022-11-27T02:22:38.975Z,2.03
2022-11-27T02:23:40.289Z,2.09
2022-11-27T02:24:41.930Z,2.07
2022-11-27T02:26:01.730Z,2.02
2022-11-27T02:27:27.505Z,2.01
2022-11-27T02:28:35.875Z,2.02
2022-11-27T02:29:39.510Z,1.98
2022-11-27T02:30:42.541Z,1.93
2022-11-27T02:31:50.269Z,1.91
2022-11-27T02:32:58.798Z,1.91
2022-11-27T02:34:05.389Z,1.89
2022-11-27T02:35:06.819Z,1.88
2022-11-27T02:36:10.945Z,1.87
2022-11-27T02:37:16.993Z,1.83
2022-11-27T02:38:23.619Z,1.83
2022-11-27T02:39:29.008Z,1.81
2022-11-27T02:40:34.299Z,1.85
2022-11-27T02:41:39.673Z,1.83
2022-11-27T02:42:43.701Z,1.83
2022-11-27T02:43:46.891Z,1.81
2022-11-27T02:45:02.773Z,1.80
2022-11-27T02:46:06.631Z,1.79
2022-11-27T02:47:08.273Z,1.79
2022-11-27T02:48:10.281Z,1.77
2022-11-27T02:49:16.383Z,1.75
2022-11-27T02:50:20.561Z,1.74
2022-11-27T02:51:23.203Z,1.79
2022-11-27T02:52:26.423Z,1.83
2022-11-27T02:53:38.493Z,1.79
2022-11-27T02:54:41.271Z,1.76
2022-11-27T02:55:43.843Z,1.73
2022-11-27T02:56:45.955Z,1.69
2022-11-27T02:57:48.788Z,1.68
2022-11-27T02:58:51.055Z,1.66
2022-11-27T02:59:55.909Z,1.66
2022-11-27T03:00:57.869Z,1.62
2022-11-27T03:02:02.440Z,1.61
2022-11-27T03:03:07.151Z,1.58
2022-11-27T03:04:13.084Z,1.55
2022-11-27T03:05:17.190Z,1.54
2022-11-27T03:06:22.420Z,1.53
2022-11-27T03:07:37.609Z,1.53
2022-11-27T03:08:43.351Z,1.51
2022-11-27T03:09:49.814Z,1.49
2022-11-27T03:10:54.594Z,1.47
2022-11-27T03:11:56.341Z,1.46
2022-11-27T03:12:58.455Z,1.44
2022-11-27T03:14:03.069Z,1.43
2022-11-27T03:15:05.358Z,1.43
2022-11-27T03:16:21.912Z,1.43
2022-11-27T03:17:26.438Z,1.40
2022-11-27T03:18:38.889Z,1.37
2022-11-27T03:19:48.136Z,1.38
2022-11-27T03:20:52.380Z,1.36
2022-11-27T03:21:56.279Z,1.35
2022-11-27T03:22:57.826Z,1.33
2022-11-27T03:23:59.247Z,1.30
2022-11-27T03:25:00.618Z,1.30
2022-11-27T03:26:02.031Z,1.31
2022-11-27T03:27:04.061Z,1.26
2022-11-27T03:28:08.368Z,1.24
2022-11-27T03:29:14.995Z,1.24
2022-11-27T03:30:16.445Z,1.23
2022-11-27T03:31:18.063Z,1.22
2022-11-27T03:32:19.860Z,1.20
2022-11-27T03:33:21.281Z,1.19
2022-11-27T03:34:22.783Z,1.22
2022-11-27T03:35:25.910Z,1.23
2022-11-27T03:36:27.397Z,1.23
2022-11-27T03:37:28.865Z,1.27
2022-11-27T03:38:30.332Z,1.25
2022-11-27T03:39:31.911Z,1.24
2022-11-27T03:40:49.904Z,1.30
2022-11-27T03:42:01.005Z,1.30
2022-11-27T03:43:18.711Z,1.28
2022-11-27T03:44:32.108Z,1.31
2022-11-27T03:45:52.842Z,1.28
2022-11-27T03:47:03.415Z,1.28
2022-11-27T03:48:13.836Z,1.28
2022-11-27T03:49:28.400Z,1.27
2022-11-27T03:50:29.708Z,1.24
2022-11-27T03:51:33.834Z,1.22
2022-11-27T03:52:55.414Z,1.22
2022-11-27T03:54:12.555Z,1.22
2022-11-27T03:55:20.037Z,1.22
2022-11-27T03:56:33.593Z,1.23
2022-11-27T03:57:42.243Z,1.24
2022-11-27T03:58:49.559Z,1.22
2022-11-27T03:59:52.873Z,1.23
2022-11-27T04:00:55.618Z,1.22
2022-11-27T04:01:57.049Z,1.23
2022-11-27T04:02:58.500Z,1.21
2022-11-27T04:03:59.902Z,1.17
2022-11-27T04:05:01.370Z,1.16
2022-11-27T04:06:03.270Z,1.15
2022-11-27T04:07:04.672Z,1.13
2022-11-27T04:08:06.024Z,1.12
2022-11-27T04:09:07.484Z,1.11
2022-11-27T04:10:09.431Z,1.08
2022-11-27T04:11:10.811Z,1.07
2022-11-27T04:12:12.191Z,1.05
2022-11-27T04:13:13.972Z,1.03
2022-11-27T04:14:15.316Z,1.00
2022-11-27T04:15:16.708Z,1.02
2022-11-27T04:16:18.575Z,1.01
2022-11-27T04:17:19.990Z,0.98
2022-11-27T04:18:21.421Z,0.97
2022-11-27T04:19:22.840Z,0.95
2022-11-27T04:20:24.317Z,0.91
2022-11-27T04:21:25.682Z,0.94
2022-11-27T04:22:27.206Z,0.91
2022-11-27T04:23:28.533Z,0.88
2022-11-27T04:24:29.904Z,0.89
2022-11-27T04:25:31.306Z,0.85
2022-11-27T04:26:32.703Z,0.83
2022-11-27T04:27:34.129Z,0.83
2022-11-27T04:28:35.607Z,0.83
2022-11-27T04:29:36.932Z,0.87
2022-11-27T04:30:38.301Z,0.81
2022-11-27T04:31:39.774Z,0.78
2022-11-27T04:32:41.221Z,0.78
2022-11-27T04:33:42.616Z,0.77
2022-11-27T04:34:43.961Z,0.77
2022-11-27T04:35:45.501Z,0.80
2022-11-27T04:36:46.855Z,0.79
2022-11-27T04:37:48.307Z,0.77
2022-11-27T04:38:49.744Z,0.75
2022-11-27T04:39:51.165Z,0.70
2022-11-27T04:40:52.692Z,0.68
2022-11-27T04:41:54.053Z,0.64
2022-11-27T04:42:55.460Z,0.63
2022-11-27T04:43:56.819Z,0.62
2022-11-27T04:44:58.223Z,0.61
2022-11-27T04:45:59.645Z,0.62
2022-11-27T04:47:01.065Z,0.63
2022-11-27T04:48:02.597Z,0.62
2022-11-27T04:49:04.168Z,0.61
2022-11-27T04:50:05.976Z,0.61
2022-11-27T04:51:07.373Z,0.61
2022-11-27T04:52:09.117Z,0.61
2022-11-27T04:53:10.497Z,0.66
2022-11-27T04:54:12.150Z,0.67
2022-11-27T04:55:13.508Z,0.69
2022-11-27T04:56:14.900Z,0.69
2022-11-27T04:57:16.290Z,0.68
2022-11-27T04:58:17.721Z,0.69
2022-11-27T04:59:19.152Z,0.73
2022-11-27T05:00:20.786Z,0.74
2022-11-27T05:01:22.274Z,0.74
2022-11-27T05:02:23.735Z,0.73
2022-11-27T05:03:25.226Z,0.72
2022-11-27T05:04:26.543Z,0.70
2022-11-27T05:05:27.935Z,0.71
2022-11-27T05:06:29.297Z,0.74
2022-11-27T05:07:30.727Z,0.73
2022-11-27T05:08:32.488Z,0.74
2022-11-27T05:09:33.908Z,0.80
2022-11-27T05:10:35.235Z,0.79
2022-11-27T05:11:36.744Z,0.78
2022-11-27T05:12:38.128Z,0.79
2022-11-27T05:13:39.568Z,0.77
2022-11-27T05:14:41.225Z,0.76
2022-11-27T05:15:44.030Z,0.76
2022-11-27T05:16:50.431Z,0.75
2022-11-27T05:17:51.995Z,0.76
2022-11-27T05:18:53.397Z,0.74
2022-11-27T05:19:54.760Z,0.77
2022-11-27T05:21:00.012Z,0.77
2022-11-27T05:22:01.823Z,0.80
2022-11-27T05:23:03.160Z,0.80
2022-11-27T05:24:04.821Z,0.80
2022-11-27T05:25:06.389Z,0.78
2022-11-27T05:26:07.816Z,0.78
2022-11-27T05:27:09.193Z,0.79
2022-11-27T05:28:10.672Z,0.78
2022-11-27T05:29:13.171Z,0.79
2022-11-27T05:30:14.642Z,0.79
2022-11-27T05:31:16.040Z,0.78
2022-11-27T05:32:17.458Z,0.78
2022-11-27T05:33:18.871Z,0.81
2022-11-27T05:34:20.605Z,0.81
2022-11-27T05:35:22.060Z,0.82
2022-11-27T05:36:23.439Z,0.83
2022-11-27T05:37:24.829Z,0.85
2022-11-27T05:38:26.179Z,0.85
2022-11-27T05:39:27.540Z,0.82
2022-11-27T05:40:28.941Z,0.84
2022-11-27T05:41:30.321Z,0.83
2022-11-27T05:42:31.696Z,0.81
2022-11-27T05:43:33.268Z,0.77
2022-11-27T05:44:34.629Z,0.77
2022-11-27T05:45:36.921Z,0.76
2022-11-27T05:46:38.487Z,0.73
2022-11-27T05:47:39.984Z,0.75
2022-11-27T05:48:41.590Z,0.74
2022-11-27T05:49:42.928Z,0.72
2022-11-27T05:50:44.377Z,0.71
2022-11-27T05:51:50.972Z,0.69
2022-11-27T05:52:53.089Z,0.69
2022-11-27T05:53:54.452Z,0.69
2022-11-27T05:54:55.822Z,0.66
2022-11-27T05:56:07.892Z,0.63
2022-11-27T05:57:09.248Z,0.63
2022-11-27T05:58:10.606Z,0.61
2022-11-27T05:59:12.084Z,0.59
2022-11-27T06:00:13.759Z,0.59
2022-11-27T06:01:16.174Z,0.60
2022-11-27T06:02:21.751Z,0.66
2022-11-27T06:03:26.464Z,0.63
2022-11-27T06:04:27.875Z,0.63
2022-11-27T06:05:29.229Z,0.63
2022-11-27T06:06:30.823Z,0.61
2022-11-27T06:07:32.282Z,0.59
2022-11-27T06:08:33.695Z,0.63
2022-11-27T06:09:37.373Z,0.63
2022-11-27T06:10:39.679Z,0.63
2022-11-27T06:11:41.404Z,0.68
2022-11-27T06:12:42.761Z,0.70
2022-11-27T06:13:44.730Z,0.68
2022-11-27T06:14:46.107Z,0.69
2022-11-27T06:15:47.522Z,0.68
2022-11-27T06:16:49.039Z,0.67
2022-11-27T06:17:50.504Z,0.63
2022-11-27T06:18:52.646Z,0.62
2022-11-27T06:19:54.337Z,0.62
2022-11-27T06:20:55.721Z,0.62
2022-11-27T06:21:57.075Z,0.62
2022-11-27T06:22:58.455Z,0.63
2022-11-27T06:23:59.783Z,0.64
2022-11-27T06:25:01.128Z,0.64
2022-11-27T06:26:28.892Z,0.61
2022-11-27T06:27:32.568Z,0.61
2022-11-27T06:28:33.874Z,0.59
2022-11-27T06:29:36.833Z,0.62
2022-11-27T06:30:38.165Z,0.61
2022-11-27T06:31:40.064Z,0.61
2022-11-27T06:32:41.576Z,0.61
2022-11-27T06:33:42.924Z,0.61
2022-11-27T06:34:44.270Z,0.60
2022-11-27T06:35:45.660Z,0.60
2022-11-27T06:36:47.017Z,0.62
2022-11-27T06:37:48.436Z,0.62
2022-11-27T06:38:49.808Z,0.65
2022-11-27T06:39:51.369Z,0.68
2022-11-27T06:40:52.765Z,0.66
2022-11-27T06:41:54.167Z,0.66
2022-11-27T06:42:55.562Z,0.65
2022-11-27T06:43:58.155Z,0.63
2022-11-27T06:44:59.501Z,0.66
2022-11-27T06:46:02.107Z,0.68
2022-11-27T06:47:03.499Z,0.65
2022-11-27T06:48:04.929Z,0.66
2022-11-27T06:49:06.340Z,0.69
2022-11-27T06:50:07.969Z,0.68
2022-11-27T06:51:11.642Z,0.71
2022-11-27T06:52:13.096Z,0.73
2022-11-27T06:53:14.456Z,0.73
2022-11-27T06:54:15.863Z,0.72
2022-11-27T06:55:17.241Z,0.71
2022-11-27T06:56:20.138Z,0.69
2022-11-27T06:57:21.503Z,0.71
2022-11-27T06:58:27.756Z,0.70
2022-11-27T06:59:32.123Z,0.70
2022-11-27T07:00:33.588Z,0.71
2022-11-27T07:01:34.988Z,0.72
2022-11-27T07:02:36.477Z,0.70
2022-11-27T07:03:37.908Z,0.71
2022-11-27T07:04:39.520Z,0.72
2022-11-27T07:05:41.172Z,0.71
2022-11-27T07:06:43.094Z,0.75
2022-11-27T07:07:44.561Z,0.81
2022-11-27T07:08:46.229Z,0.80
2022-11-27T07:09:47.650Z,0.79
2022-11-27T07:10:49.118Z,0.77
2022-11-27T07:11:50.476Z,0.75
2022-11-27T07:12:51.928Z,0.74
2022-11-27T07:13:54.729Z,0.73
2022-11-27T07:14:56.063Z,0.71
2022-11-27T07:16:01.350Z,0.73
2022-11-27T07:17:03.240Z,0.72
2022-11-27T07:18:04.827Z,0.76
2022-11-27T07:19:07.226Z,0.76
2022-11-27T07:20:08.831Z,0.80
2022-11-27T07:21:10.607Z,0.80
2022-11-27T07:22:11.984Z,0.89
2022-11-27T07:23:13.372Z,0.84
2022-11-27T07:24:14.802Z,0.85
2022-11-27T07:25:16.202Z,0.89
2022-11-27T07:26:18.909Z,0.92
2022-11-27T07:27:20.246Z,0.94
2022-11-27T07:28:21.633Z,0.97
2022-11-27T07:29:23.135Z,0.99
2022-11-27T07:30:24.462Z,1.00
2022-11-27T07:31:27.227Z,1.02
2022-11-27T07:32:28.628Z,1.06
2022-11-27T07:33:30.104Z,1.07
2022-11-27T07:34:34.254Z,1.10
2022-11-27T07:35:35.623Z,1.11
2022-11-27T07:36:36.957Z,1.12
2022-11-27T07:37:38.389Z,1.16
2022-11-27T07:38:39.789Z,1.15
2022-11-27T07:40:01.382Z,1.20
2022-11-27T07:41:03.269Z,1.22
2022-11-27T07:42:36.977Z,1.27
2022-11-27T07:43:26.032Z,1.29
2022-11-27T07:44:27.424Z,1.28
2022-11-27T07:45:29.207Z,1.31
2022-11-27T07:46:30.672Z,1.31
2022-11-27T07:47:32.092Z,1.29
2022-11-27T07:48:33.868Z,1.32
2022-11-27T07:49:35.261Z,1.32
2022-11-27T07:50:45.391Z,1.35
2022-11-27T07:51:46.815Z,1.39
2022-11-27T07:52:48.277Z,1.39
2022-11-27T07:53:49.651Z,1.42
2022-11-27T07:54:51.046Z,1.46
2022-11-27T07:55:52.545Z,1.49
2022-11-27T07:56:53.931Z,1.50
2022-11-27T07:57:55.263Z,1.54
2022-11-27T07:58:57.179Z,1.57
2022-11-27T07:59:58.656Z,1.57
2022-11-27T08:01:00.089Z,1.60
2022-11-27T08:02:01.592Z,1.59
2022-11-27T08:03:03.019Z,1.59
2022-11-27T08:04:04.492Z,1.59
2022-11-27T08:05:12.069Z,1.61
2022-11-27T08:06:18.745Z,1.61
2022-11-27T08:07:20.179Z,1.59
2022-11-27T08:08:21.588Z,1.59
2022-11-27T08:09:22.973Z,1.59
2022-11-27T08:10:24.534Z,1.61
2022-11-27T08:11:27.300Z,1.62
2022-11-27T08:12:28.711Z,1.61
2022-11-27T08:13:30.053Z,1.61
2022-11-27T08:14:31.404Z,1.61
2022-11-27T08:15:33.381Z,1.62
2022-11-27T08:16:35.758Z,1.59
2022-11-27T08:17:37.541Z,1.60
2022-11-27T08:18:38.986Z,1.60
2022-11-27T08:19:40.330Z,1.59
2022-11-27T08:20:41.736Z,1.62
2022-11-27T08:21:43.096Z,1.62
2022-11-27T08:22:44.439Z,1.64
2022-11-27T08:23:45.794Z,1.73
2022-11-27T08:24:47.209Z,1.72
2022-11-27T08:25:48.622Z,1.77
2022-11-27T08:26:50.013Z,1.84
2022-11-27T08:27:51.347Z,1.81
2022-11-27T08:28:52.952Z,1.86
2022-11-27T08:29:54.381Z,1.84
2022-11-27T08:30:56.855Z,1.86
2022-11-27T08:31:58.214Z,1.86
2022-11-27T08:32:59.570Z,1.91
2022-11-27T08:34:01.105Z,1.93
2022-11-27T08:35:02.418Z,1.93
2022-11-27T08:36:04.498Z,1.93
2022-11-27T08:37:06.405Z,1.97
2022-11-27T08:38:07.801Z,1.97
2022-11-27T08:39:09.138Z,1.99
2022-11-27T08:40:10.767Z,2.02
2022-11-27T08:41:12.131Z,2.03
2022-11-27T08:42:13.575Z,2.10
2022-11-27T08:43:15.032Z,2.12
2022-11-27T08:44:16.433Z,2.10
2022-11-27T08:45:17.879Z,2.12
2022-11-27T08:46:19.357Z,2.15
2022-11-27T08:47:20.843Z,2.16
2022-11-27T08:48:31.424Z,2.19
2022-11-27T08:49:32.866Z,2.25
2022-11-27T08:50:34.375Z,2.30
2022-11-27T08:51:36.050Z,2.33
2022-11-27T08:52:37.437Z,2.36
2022-11-27T08:53:39.573Z,2.41
2022-11-27T08:54:41.362Z,2.42
2022-11-27T08:55:43.028Z,2.45
2022-11-27T08:56:44.608Z,2.49
2022-11-27T08:57:46.013Z,2.53
2022-11-27T08:58:47.418Z,2.61
2022-11-27T08:59:48.733Z,2.67
2022-11-27T09:00:50.210Z,2.72
2022-11-27T09:01:51.559Z,2.78
2022-11-27T09:02:53.034Z,2.86
2022-11-27T09:03:54.467Z,2.89
2022-11-27T09:04:56.832Z,2.90
2022-11-27T09:05:58.228Z,2.93
2022-11-27T09:06:59.716Z,2.97
2022-11-27T09:08:01.103Z,2.99
2022-11-27T09:09:04.204Z,3.03
2022-11-27T09:10:05.929Z,3.04
2022-11-27T09:11:08.059Z,3.05
2022-11-27T09:12:09.499Z,3.07
2022-11-27T09:13:12.415Z,3.08
2022-11-27T09:14:13.796Z,3.10
2022-11-27T09:15:16.000Z,3.16
2022-11-27T09:16:18.485Z,3.18
2022-11-27T09:17:19.988Z,3.20
2022-11-27T09:18:21.332Z,3.22
2022-11-27T09:19:22.891Z,3.22
2022-11-27T09:20:24.397Z,3.23
2022-11-27T09:21:26.706Z,3.26
2022-11-27T09:22:28.080Z,3.27
2022-11-27T09:23:29.727Z,3.27
2022-11-27T09:24:31.292Z,3.31
2022-11-27T09:25:32.715Z,3.34
2022-11-27T09:26:36.058Z,3.40
2022-11-27T09:27:37.657Z,3.42
2022-11-27T09:28:39.635Z,3.43
2022-11-27T09:29:40.983Z,3.43
2022-11-27T09:30:42.431Z,3.48
2022-11-27T09:31:44.135Z,3.51
2022-11-27T09:32:45.596Z,3.54
2022-11-27T09:33:47.087Z,3.55
2022-11-27T09:34:48.556Z,3.57
2022-11-27T09:35:53.451Z,3.53
2022-11-27T09:36:55.065Z,3.55
2022-11-27T09:37:56.892Z,3.52
2022-11-27T09:38:59.044Z,3.47
2022-11-27T09:40:00.675Z,3.55
2022-11-27T09:41:25.481Z,3.53
2022-11-27T09:42:36.228Z,3.52
2022-11-27T09:43:57.625Z,3.50
2022-11-27T09:45:00.173Z,3.48
2022-11-27T09:46:04.592Z,3.52
2022-11-27T09:47:28.348Z,3.56
2022-11-27T09:48:38.235Z,3.57
2022-11-27T09:49:43.891Z,3.63
2022-11-27T09:50:48.597Z,3.65
2022-11-27T09:51:53.822Z,3.70
2022-11-27T09:52:58.550Z,3.78
2022-11-27T09:54:15.698Z,3.82
2022-11-27T09:55:17.053Z,3.84
2022-11-27T09:56:19.426Z,3.83
2022-11-27T09:57:26.634Z,3.83
2022-11-27T09:58:43.882Z,3.83
2022-11-27T09:59:50.327Z,3.85
2022-11-27T10:00:51.822Z,3.87
2022-11-27T10:01:54.810Z,3.88
2022-11-27T10:02:56.582Z,3.85
2022-11-27T10:03:58.077Z,3.82
2022-11-27T10:05:16.244Z,3.84
2022-11-27T10:06:36.933Z,3.84
2022-11-27T10:07:48.248Z,3.83
2022-11-27T10:09:05.709Z,3.84
2022-11-27T10:10:16.412Z,3.86
2022-11-27T10:11:29.495Z,3.85
2022-11-27T10:12:56.872Z,3.85
2022-11-27T10:14:16.572Z,3.82
2022-11-27T10:15:18.057Z,3.80
2022-11-27T10:16:25.143Z,3.79
2022-11-27T10:17:37.645Z,3.78
2022-11-27T10:18:43.024Z,3.77
2022-11-27T10:19:54.421Z,3.78
2022-11-27T10:21:03.001Z,3.77
2022-11-27T10:22:14.294Z,3.79
2022-11-27T10:23:36.926Z,3.84
2022-11-27T10:24:57.117Z,3.86
2022-11-27T10:26:02.260Z,3.89
2022-11-27T10:27:09.895Z,3.90
2022-11-27T10:28:11.320Z,3.94
2022-11-27T10:29:28.554Z,3.96
2022-11-27T10:30:31.794Z,3.97
2022-11-27T10:31:59.676Z,4.01
2022-11-27T10:33:03.311Z,4.07
2022-11-27T10:34:20.136Z,4.07
2022-11-27T10:35:25.621Z,4.11
2022-11-27T10:36:33.798Z,4.17
2022-11-27T10:37:35.174Z,4.20
2022-11-27T10:38:39.138Z,4.24
2022-11-27T10:39:44.989Z,4.26
2022-11-27T10:40:51.954Z,4.33
2022-11-27T10:41:56.640Z,4.38
2022-11-27T10:43:00.698Z,4.43
2022-11-27T10:44:18.465Z,4.46
2022-11-27T10:45:31.828Z,4.54
2022-11-27T10:46:37.577Z,4.61
2022-11-27T10:47:40.296Z,4.66
2022-11-27T10:48:41.770Z,4.70
2022-11-27T10:49:43.886Z,4.78
2022-11-27T10:50:45.440Z,4.80
2022-11-27T10:51:46.921Z,4.86
2022-11-27T10:53:02.625Z,4.88
2022-11-27T10:54:05.994Z,4.88
2022-11-27T10:55:16.396Z,4.89
2022-11-27T10:56:36.225Z,4.91
2022-11-27T10:57:56.277Z,4.91
2022-11-27T10:58:59.600Z,4.89
2022-11-27T11:00:03.801Z,4.92
2022-11-27T11:01:06.908Z,4.93
2022-11-27T11:02:24.618Z,4.96
2022-11-27T11:03:26.114Z,4.98
2022-11-27T11:04:37.885Z,5.01
2022-11-27T11:06:12.015Z,5.09
2022-11-27T11:07:01.352Z,5.14
2022-11-27T11:08:14.290Z,5.21
2022-11-27T11:09:18.703Z,5.22
2022-11-27T11:10:27.743Z,5.21
2022-11-27T11:11:29.249Z,5.24
2022-11-27T11:12:30.623Z,5.24
2022-11-27T11:13:33.086Z,5.24
2022-11-27T11:14:34.596Z,5.29
2022-11-27T11:15:46.423Z,5.32
2022-11-27T11:16:51.992Z,5.32
2022-11-27T11:17:53.535Z,5.31
2022-11-27T11:18:55.306Z,5.30
2022-11-27T11:19:56.781Z,5.29
2022-11-27T11:21:00.137Z,5.39
2022-11-27T11:22:06.542Z,5.38
2022-11-27T11:23:20.701Z,5.40
2022-11-27T11:24:25.542Z,5.48
2022-11-27T11:25:27.011Z,5.48
2022-11-27T11:26:28.436Z,5.51
2022-11-27T11:27:31.377Z,5.54
2022-11-27T11:28:39.400Z,5.52
2022-11-27T11:29:49.538Z,5.56
2022-11-27T11:30:59.867Z,5.60
2022-11-27T11:32:10.019Z,5.60
2022-11-27T11:33:13.552Z,5.60
2022-11-27T11:34:25.811Z,5.60
2022-11-27T11:35:30.523Z,5.57
2022-11-27T11:36:32.060Z,5.57
2022-11-27T11:37:34.556Z,5.58
2022-11-27T11:38:42.338Z,5.61
2022-11-27T11:39:52.988Z,5.72
2022-11-27T11:40:59.351Z,5.73
2022-11-27T11:42:00.894Z,5.73
2022-11-27T11:43:04.188Z,5.76
2022-11-27T11:44:05.793Z,5.79
2022-11-27T11:45:13.121Z,5.80
2022-11-27T11:46:17.640Z,5.81
2022-11-27T11:47:20.073Z,5.87
2022-11-27T11:48:23.754Z,5.88
2022-11-27T11:49:26.437Z,5.91
2022-11-27T11:50:46.026Z,5.94
2022-11-27T11:51:56.290Z,5.96
2022-11-27T11:53:02.268Z,6.01
2022-11-27T11:54:06.961Z,6.02
2022-11-27T11:55:08.407Z,6.04
2022-11-27T11:56:21.996Z,6.05
2022-11-27T11:57:31.287Z,6.13
2022-11-27T11:58:32.667Z,6.16
2022-11-27T11:59:38.535Z,6.23
2022-11-27T12:01:04.878Z,6.23
2022-11-27T12:02:23.783Z,6.23
2022-11-27T12:03:31.454Z,6.20
2022-11-27T12:04:35.786Z,6.19
2022-11-27T12:05:37.242Z,6.21
2022-11-27T12:06:46.314Z,6.20
2022-11-27T12:08:06.688Z,6.25
2022-11-27T12:09:31.430Z,6.28
2022-11-27T12:10:32.881Z,6.31
2022-11-27T12:11:37.168Z,6.35
2022-11-27T12:12:38.547Z,6.40
2022-11-27T12:13:49.150Z,6.49
2022-11-27T12:14:55.162Z,6.54
2022-11-27T12:16:15.639Z,6.55
2022-11-27T12:17:29.140Z,6.57
2022-11-27T12:18:30.449Z,6.59
2022-11-27T12:19:40.904Z,6.64
2022-11-27T12:20:42.548Z,6.69
2022-11-27T12:21:46.892Z,6.69
2022-11-27T12:23:06.966Z,6.70
2022-11-27T12:24:27.583Z,6.79
2022-11-27T12:25:41.841Z,6.81
2022-11-27T12:26:55.236Z,6.82
2022-11-27T12:28:08.847Z,6.86
2022-11-27T12:29:13.214Z,6.92
2022-11-27T12:30:19.448Z,6.96
2022-11-27T12:31:41.224Z,7.02
2022-11-27T12:32:51.358Z,7.06
2022-11-27T12:33:52.750Z,7.09
2022-11-27T12:35:12.521Z,7.12
2022-11-27T12:36:20.038Z,7.11
2022-11-27T12:37:33.386Z,7.19
2022-11-27T12:38:34.864Z,7.20
2022-11-27T12:39:51.420Z,7.22
2022-11-27T12:41:11.786Z,7.20
2022-11-27T12:42:23.497Z,7.22
2022-11-27T12:43:30.365Z,7.23
2022-11-27T12:44:32.165Z,7.20
2022-11-27T12:45:37.271Z,7.21
2022-11-27T12:46:58.975Z,7.19
2022-11-27T12:48:21.599Z,7.22
2022-11-27T12:49:25.885Z,7.21
2022-11-27T12:50:45.746Z,7.25
2022-11-27T12:52:19.804Z,7.22
2022-11-27T12:53:33.259Z,7.22
2022-11-27T12:54:49.834Z,7.19
2022-11-27T12:56:03.021Z,7.14
2022-11-27T12:57:08.072Z,7.10
2022-11-27T12:58:16.882Z,7.05
2022-11-27T12:59:23.702Z,7.01
2022-11-27T13:00:26.745Z,6.99
2022-11-27T13:01:35.408Z,7.03
2022-11-27T13:02:36.860Z,7.02
2022-11-27T13:03:46.234Z,6.99
2022-11-27T13:05:10.018Z,6.96
2022-11-27T13:06:16.944Z,6.93
2022-11-27T13:07:18.441Z,6.94
2022-11-27T13:08:25.702Z,6.95
2022-11-27T13:09:50.233Z,6.98
2022-11-27T13:11:14.815Z,7.02
2022-11-27T13:12:31.362Z,7.04
2022-11-27T13:13:43.161Z,7.08
2022-11-27T13:14:52.419Z,7.08
2022-11-27T13:15:57.481Z,7.08
2022-11-27T13:17:02.389Z,7.10
2022-11-27T13:18:19.860Z,7.09
2022-11-27T13:19:30.190Z,7.13
2022-11-27T13:20:37.080Z,7.16
2022-11-27T13:21:39.411Z,7.20
2022-11-27T13:22:42.161Z,7.24
2022-11-27T13:23:43.606Z,7.28
2022-11-27T13:24:45.071Z,7.30
2022-11-27T13:25:50.428Z,7.33
2022-11-27T13:27:06.125Z,7.34
2022-11-27T13:28:08.372Z,7.38
2022-11-27T13:29:35.983Z,7.43
2022-11-27T13:30:38.111Z,7.47
2022-11-27T13:31:39.971Z,7.50
2022-11-27T13:32:47.282Z,7.53
2022-11-27T13:33:49.309Z,7.53
2022-11-27T13:34:51.656Z,7.55
2022-11-27T13:35:53.079Z,7.56
2022-11-27T13:36:59.095Z,7.56
2022-11-27T13:38:18.948Z,7.56
2022-11-27T13:39:30.987Z,7.55
2022-11-27T13:40:43.716Z,7.55
2022-11-27T13:41:45.199Z,7.57
2022-11-27T13:42:49.475Z,7.60
2022-11-27T13:43:51.610Z,7.62
2022-11-27T13:44:55.197Z,7.65
2022-11-27T13:46:15.156Z,7.66
2022-11-27T13:47:18.966Z,7.67
2022-11-27T13:48:40.590Z,7.68
2022-11-27T13:49:42.093Z,7.70
2022-11-27T13:50:44.979Z,7.73
2022-11-27T13:51:46.350Z,7.74
2022-11-27T13:52:50.611Z,7.75
2022-11-27T13:53:52.132Z,7.76
2022-11-27T13:54:53.609Z,7.77
2022-11-27T13:55:55.376Z,7.78
2022-11-27T13:56:56.922Z,7.77
2022-11-27T13:57:59.139Z,7.77
2022-11-27T13:59:00.639Z,7.78
2022-11-27T14:00:04.869Z,7.77
2022-11-27T14:01:19.316Z,7.78
2022-11-27T14:02:21.030Z,7.79
2022-11-27T14:03:26.690Z,7.79
2022-11-27T14:04:29.123Z,7.79
2022-11-27T14:05:35.924Z,7.79
2022-11-27T14:06:38.528Z,7.78
2022-11-27T14:07:45.375Z,7.79
2022-11-27T14:08:52.781Z,7.80
2022-11-27T14:09:55.157Z,7.81
2022-11-27T14:10:58.413Z,7.82
2022-11-27T14:11:59.877Z,7.80
2022-11-27T14:13:08.977Z,7.79
2022-11-27T14:14:21.017Z,7.79
2022-11-27T14:15:24.457Z,7.78
2022-11-27T14:16:33.252Z,7.79
2022-11-27T14:17:40.268Z,7.79
2022-11-27T14:18:49.228Z,7.79
2022-11-27T14:19:59.239Z,7.81
2022-11-27T14:21:04.350Z,7.79